createdAt,value
2023-01-30T00:01:37.061Z,100749.00
2023-01-30T00:04:03.520Z,100723.47
2023-01-30T00:06:29.927Z,100715.56
2023-01-30T00:08:56.320Z,100732.25
2023-01-30T00:11:22.756Z,100708.50
2023-01-30T00:13:49.681Z,100709.38
2023-01-30T00:16:16.473Z,100689.19
2023-01-30T00:18:43.045Z,100692.66
2023-01-30T00:21:12.354Z,100700.59
2023-01-30T00:23:39.116Z,100708.50
2023-01-30T00:26:06.136Z,100692.59
2023-01-30T00:28:32.677Z,100675.88
2023-01-30T00:30:59.128Z,100660.94
2023-01-30T00:33:26.216Z,100663.56
2023-01-30T00:35:53.337Z,100645.91
2023-01-30T00:38:19.904Z,100646.78
2023-01-30T00:40:46.741Z,100632.69
2023-01-30T00:43:14.479Z,100615.09
2023-01-30T00:45:41.705Z,100619.50
2023-01-30T00:48:08.129Z,100612.38
2023-01-30T00:50:34.533Z,100600.03
2023-01-30T00:53:00.934Z,100607.09
2023-01-30T00:55:27.348Z,100588.63
2023-01-30T00:57:53.746Z,100594.78
2023-01-30T01:00:20.302Z,100589.47
2023-01-30T01:02:46.731Z,100571.00
2023-01-30T01:05:13.127Z,100581.47
2023-01-30T01:07:39.543Z,100583.31
2023-01-30T01:10:06.552Z,100592.94
2023-01-30T01:12:33.306Z,100575.31
2023-01-30T01:14:59.676Z,100566.50
2023-01-30T01:17:26.276Z,100573.53
2023-01-30T01:19:52.682Z,100560.25
2023-01-30T01:22:19.097Z,100550.56
2023-01-30T01:24:45.472Z,100553.22
2023-01-30T01:27:11.902Z,100556.72
2023-01-30T01:29:38.296Z,100543.47
2023-01-30T01:32:04.906Z,100538.16
2023-01-30T01:34:31.318Z,100532.84
2023-01-30T01:36:57.765Z,100521.41
2023-01-30T01:39:24.172Z,100524.06
2023-01-30T01:41:50.625Z,100521.41
2023-01-30T01:44:17.049Z,100527.53
2023-01-30T01:46:55.591Z,100511.66
2023-01-30T01:49:33.662Z,100509.88
2023-01-30T01:52:02.881Z,100496.69
2023-01-30T01:54:48.823Z,100489.56
2023-01-30T01:57:18.488Z,100479.91
2023-01-30T01:59:49.943Z,100495.72
2023-01-30T02:02:16.383Z,100484.28
2023-01-30T02:04:45.220Z,100482.53
2023-01-30T02:07:11.622Z,100489.56
2023-01-30T02:09:38.065Z,100484.34
2023-01-30T02:12:04.561Z,100472.81
2023-01-30T02:14:32.425Z,100472.81
2023-01-30T02:16:58.835Z,100478.13
2023-01-30T02:19:57.305Z,100455.22
2023-01-30T02:23:01.270Z,100457.84
2023-01-30T02:25:42.565Z,100452.50
2023-01-30T02:28:46.799Z,100455.09
2023-01-30T02:31:25.479Z,100436.66
2023-01-30T02:34:24.070Z,100443.63
2023-01-30T02:37:15.187Z,100445.41
2023-01-30T02:40:05.859Z,100428.75
2023-01-30T02:42:37.224Z,100433.94
2023-01-30T02:45:06.259Z,100435.66
2023-01-30T02:48:02.862Z,100410.13
2023-01-30T02:50:30.346Z,100408.25
2023-01-30T02:52:56.757Z,100406.56
2023-01-30T02:55:25.277Z,100409.09
2023-01-30T02:57:51.787Z,100400.28
2023-01-30T03:00:53.399Z,100395.81
2023-01-30T03:03:37.746Z,100401.03
2023-01-30T03:06:07.103Z,100394.88
2023-01-30T03:08:46.854Z,100396.66
2023-01-30T03:11:13.243Z,100377.38
2023-01-30T03:13:42.616Z,100379.78
2023-01-30T03:16:15.778Z,100385.88
2023-01-30T03:18:43.030Z,100365.63
2023-01-30T03:21:09.433Z,100373.50
2023-01-30T03:23:35.832Z,100365.56
2023-01-30T03:26:06.699Z,100369.06
2023-01-30T03:28:33.093Z,100361.13
2023-01-30T03:30:59.575Z,100360.16
2023-01-30T03:33:26.005Z,100350.47
2023-01-30T03:35:52.419Z,100352.19
2023-01-30T03:38:19.115Z,100349.53
2023-01-30T03:40:45.529Z,100346.75
2023-01-30T03:43:11.917Z,100338.94
2023-01-30T03:45:38.333Z,100330.13
2023-01-30T03:48:05.003Z,100329.22
2023-01-30T03:50:31.395Z,100331.78
2023-01-30T03:52:57.783Z,100319.41
2023-01-30T03:55:24.189Z,100322.88
2023-01-30T03:57:54.927Z,100329.97
2023-01-30T04:00:21.565Z,100325.53
2023-01-30T04:02:48.101Z,100336.00
2023-01-30T04:05:14.574Z,100337.72
2023-01-30T04:07:40.977Z,100331.53
2023-01-30T04:10:07.780Z,100306.81
2023-01-30T04:12:34.188Z,100307.66
2023-01-30T04:15:00.581Z,100315.50
2023-01-30T04:17:26.984Z,100314.59
2023-01-30T04:19:53.363Z,100320.53
2023-01-30T04:22:19.768Z,100339.09
2023-01-30T04:24:46.150Z,100335.56
2023-01-30T04:27:12.544Z,100328.47
2023-01-30T04:29:38.938Z,100318.75
2023-01-30T04:32:05.352Z,100309.09
2023-01-30T04:34:31.746Z,100316.97
2023-01-30T04:36:58.171Z,100314.44
2023-01-30T04:39:24.574Z,100316.28
2023-01-30T04:41:51.160Z,100320.59
2023-01-30T04:44:17.546Z,100321.44
2023-01-30T04:46:43.938Z,100332.06
2023-01-30T04:49:10.940Z,100327.78
2023-01-30T04:51:37.376Z,100311.88
2023-01-30T04:54:04.007Z,100316.31
2023-01-30T04:56:30.436Z,100312.88
2023-01-30T04:58:56.848Z,100307.66
2023-01-30T05:01:33.359Z,100323.59
2023-01-30T05:04:01.967Z,100328.88
2023-01-30T05:06:28.447Z,100331.59
2023-01-30T05:08:55.546Z,100317.41
2023-01-30T05:11:22.487Z,100321.78
2023-01-30T05:13:48.920Z,100316.50
2023-01-30T05:16:15.547Z,100307.72
2023-01-30T05:18:42.038Z,100328.88
2023-01-30T05:21:15.324Z,100332.41
2023-01-30T05:23:41.792Z,100328.00
2023-01-30T05:26:08.243Z,100322.72
2023-01-30T05:28:34.790Z,100317.50
2023-01-30T05:31:08.368Z,100314.94
2023-01-30T05:33:34.907Z,100310.53
2023-01-30T05:36:01.366Z,100319.34
2023-01-30T05:38:27.785Z,100332.59
2023-01-30T05:41:05.120Z,100321.28
2023-01-30T05:43:32.042Z,100316.06
2023-01-30T05:45:59.111Z,100332.84
2023-01-30T05:48:25.659Z,100330.19
2023-01-30T05:50:52.977Z,100327.69
2023-01-30T05:53:19.918Z,100321.63
2023-01-30T05:55:46.349Z,100320.81
2023-01-30T05:58:12.798Z,100319.25
2023-01-30T06:00:39.271Z,100324.66
2023-01-30T06:03:05.672Z,100303.59
2023-01-30T06:05:32.095Z,100303.56
2023-01-30T06:07:58.487Z,100301.94
2023-01-30T06:10:24.910Z,100296.78
2023-01-30T06:12:51.312Z,100305.31
2023-01-30T06:15:18.154Z,100314.19
2023-01-30T06:17:44.810Z,100316.06
2023-01-30T06:20:11.683Z,100320.41
2023-01-30T06:22:38.214Z,100330.16
2023-01-30T06:25:05.114Z,100322.34
2023-01-30T06:27:31.496Z,100320.47
2023-01-30T06:29:57.908Z,100330.28
2023-01-30T06:32:24.318Z,100323.25
2023-01-30T06:34:50.817Z,100333.00
2023-01-30T06:37:17.209Z,100337.38
2023-01-30T06:39:43.609Z,100340.09
2023-01-30T06:42:10.208Z,100329.56
2023-01-30T06:44:36.584Z,100339.16
2023-01-30T06:47:03.010Z,100339.22
2023-01-30T06:49:29.372Z,100333.81
2023-01-30T06:51:55.788Z,100337.38
2023-01-30T06:54:22.184Z,100336.63
2023-01-30T06:56:48.575Z,100337.47
2023-01-30T06:59:15.000Z,100345.38
2023-01-30T07:01:41.429Z,100343.56
2023-01-30T07:04:08.265Z,100340.97
2023-01-30T07:06:34.707Z,100340.13
2023-01-30T07:09:01.108Z,100341.91
2023-01-30T07:11:27.595Z,100344.53
2023-01-30T07:13:53.992Z,100349.78
2023-01-30T07:16:20.450Z,100353.19
2023-01-30T07:18:46.852Z,100347.06
2023-01-30T07:21:13.266Z,100337.34
2023-01-30T07:23:39.652Z,100340.03
2023-01-30T07:26:06.170Z,100342.66
2023-01-30T07:28:32.628Z,100324.28
2023-01-30T07:31:00.087Z,100333.94
2023-01-30T07:33:26.639Z,100341.00
2023-01-30T07:35:53.040Z,100338.28
2023-01-30T07:41:03.475Z,100337.41
2023-01-30T07:43:29.909Z,100333.88
2023-01-30T07:45:56.325Z,100334.69
2023-01-30T07:48:23.103Z,100332.66
2023-01-30T07:50:49.501Z,100347.56
2023-01-30T07:53:16.674Z,100341.22
2023-01-30T07:55:43.084Z,100336.84
2023-01-30T07:58:14.704Z,100336.69
2023-01-30T08:00:41.180Z,100339.22
2023-01-30T08:03:14.139Z,100344.50
2023-01-30T08:05:40.969Z,100348.84
2023-01-30T08:08:07.699Z,100347.16
2023-01-30T08:10:34.123Z,100348.06
2023-01-30T08:13:00.558Z,100348.03
2023-01-30T08:15:26.998Z,100350.66
2023-01-30T08:17:54.562Z,100346.25
2023-01-30T08:20:21.461Z,100355.00
2023-01-30T08:22:48.100Z,100346.22
2023-01-30T08:25:14.585Z,100357.69
2023-01-30T08:27:41.015Z,100355.88
2023-01-30T08:30:08.185Z,100343.50
2023-01-30T08:32:34.617Z,100366.44
2023-01-30T08:35:01.012Z,100361.91
2023-01-30T08:37:27.451Z,100367.03
2023-01-30T08:39:53.844Z,100363.59
2023-01-30T08:42:20.242Z,100367.84
2023-01-30T08:44:46.669Z,100366.06
2023-01-30T08:47:13.090Z,100354.53
2023-01-30T08:49:39.739Z,100357.28
2023-01-30T08:52:06.165Z,100355.50
2023-01-30T08:54:33.393Z,100347.47
2023-01-30T08:56:59.828Z,100347.38
2023-01-30T08:59:26.255Z,100347.38
2023-01-30T09:01:52.679Z,100350.03
2023-01-30T09:04:19.098Z,100337.59
2023-01-30T09:06:45.495Z,100348.97
2023-01-30T09:09:11.904Z,100343.78
2023-01-30T09:11:38.351Z,100357.81
2023-01-30T09:14:04.766Z,100350.72
2023-01-30T09:16:31.226Z,100340.22
2023-01-30T09:18:57.637Z,100339.41
2023-01-30T09:21:24.065Z,100341.94
2023-01-30T09:23:50.473Z,100351.69
2023-01-30T09:26:16.993Z,100344.72
2023-01-30T09:28:43.426Z,100345.56
2023-01-30T09:31:09.956Z,100337.69
2023-01-30T09:33:36.775Z,100333.28
2023-01-30T09:36:03.324Z,100333.13
2023-01-30T09:38:29.755Z,100304.75
2023-01-30T09:40:58.795Z,100310.97
2023-01-30T09:43:44.023Z,100324.25
2023-01-30T09:46:25.545Z,100319.59
2023-01-30T09:49:01.803Z,100313.91
2023-01-30T09:51:43.459Z,100310.03
2023-01-30T09:54:17.234Z,100310.81
2023-01-30T09:56:43.638Z,100306.34
2023-01-30T09:59:15.690Z,100317.91
2023-01-30T10:02:06.867Z,100315.59
2023-01-30T10:04:34.768Z,100304.28
2023-01-30T10:07:10.384Z,100285.91
2023-01-30T10:09:46.826Z,100292.34
2023-01-30T10:12:29.057Z,100298.75
2023-01-30T10:15:13.801Z,100287.22
2023-01-30T10:18:02.331Z,100280.13
2023-01-30T10:20:50.110Z,100274.09
2023-01-30T10:23:20.569Z,100282.16
2023-01-30T10:25:52.605Z,100283.91
2023-01-30T10:28:25.604Z,100290.34
2023-01-30T10:30:55.988Z,100283.28
2023-01-30T10:33:43.352Z,100262.72
2023-01-30T10:36:14.867Z,100262.00
2023-01-30T10:38:51.506Z,100254.00
2023-01-30T10:41:36.564Z,100263.38
2023-01-30T10:44:10.275Z,100269.19
2023-01-30T10:46:42.461Z,100258.25
2023-01-30T10:49:15.636Z,100252.94
2023-01-30T10:52:11.285Z,100276.69
2023-01-30T10:54:40.373Z,100251.00
2023-01-30T10:57:40.503Z,100286.59
2023-01-30T11:00:17.524Z,100307.97
2023-01-30T11:03:22.149Z,100321.47
2023-01-30T11:05:52.439Z,100316.41
2023-01-30T11:08:20.061Z,100323.41
2023-01-30T11:10:46.483Z,100321.69
2023-01-30T11:13:20.441Z,100318.16
2023-01-30T11:15:49.497Z,100312.97
2023-01-30T11:21:05.905Z,100316.50
2023-01-30T11:23:36.132Z,100321.78
2023-01-30T11:26:11.200Z,100326.25
2023-01-30T11:28:42.770Z,100328.97
2023-01-30T11:31:21.343Z,100332.53
2023-01-30T11:34:02.505Z,100323.75
2023-01-30T11:36:32.250Z,100322.94
2023-01-30T11:38:59.558Z,100321.22
2023-01-30T11:41:25.967Z,100331.69
2023-01-30T11:43:59.432Z,100343.97
2023-01-30T11:46:25.900Z,100332.25
2023-01-30T11:49:03.298Z,100321.50
2023-01-30T11:51:46.218Z,100318.59
2023-01-30T11:54:14.699Z,100316.78
2023-01-30T11:56:45.903Z,100304.41
2023-01-30T11:59:24.501Z,100297.25
2023-01-30T12:01:50.954Z,100279.53
2023-01-30T12:04:17.375Z,100284.72
2023-01-30T12:06:43.973Z,100285.34
2023-01-30T12:09:31.329Z,100259.59
2023-01-30T12:11:57.713Z,100255.28
2023-01-30T12:14:41.646Z,100277.47
2023-01-30T12:17:15.952Z,100273.25
2023-01-30T12:20:01.874Z,100270.53
2023-01-30T12:22:52.255Z,100257.38
2023-01-30T12:25:32.658Z,100277.66
2023-01-30T12:28:02.161Z,100294.41
2023-01-30T12:30:46.520Z,100309.44
2023-01-30T12:33:13.659Z,100291.91
2023-01-30T12:35:54.966Z,100304.94
2023-01-30T12:39:04.914Z,100318.06
2023-01-30T12:42:03.298Z,100304.94
2023-01-30T12:44:48.658Z,100318.81
2023-01-30T12:47:55.260Z,100311.50
2023-01-30T12:51:03.171Z,100318.38
2023-01-30T12:53:56.066Z,100323.59
2023-01-30T12:56:53.399Z,100322.72
2023-01-30T12:59:42.790Z,100323.56
2023-01-30T13:02:43.105Z,100315.53
2023-01-30T13:05:24.388Z,100319.88
2023-01-30T13:07:50.676Z,100323.84
2023-01-30T13:10:45.988Z,100309.72
2023-01-30T13:13:30.975Z,100315.84
2023-01-30T13:16:35.422Z,100323.69
2023-01-30T13:19:11.721Z,100316.69
2023-01-30T13:22:12.315Z,100321.09
2023-01-30T13:24:38.647Z,100321.97
2023-01-30T13:27:05.039Z,100324.63
2023-01-30T13:29:31.899Z,100325.38
2023-01-30T13:32:00.209Z,100324.38
2023-01-30T13:34:32.635Z,100330.72
2023-01-30T13:37:04.253Z,100309.56
2023-01-30T13:39:52.482Z,100328.97
2023-01-30T13:42:24.859Z,100324.47
2023-01-30T13:44:51.372Z,100335.72
2023-01-30T13:48:02.622Z,100336.59
2023-01-30T13:50:41.973Z,100383.31
2023-01-30T13:53:43.626Z,100374.19
2023-01-30T13:56:41.406Z,100394.44
2023-01-30T13:59:39.832Z,100390.88
2023-01-30T14:02:06.196Z,100413.03
2023-01-30T14:04:38.397Z,100414.84
2023-01-30T14:07:38.893Z,100414.13
2023-01-30T14:10:15.821Z,100414.22
2023-01-30T14:12:46.948Z,100434.44
2023-01-30T14:15:13.232Z,100409.75
2023-01-30T14:17:56.459Z,100440.56
2023-01-30T14:20:23.128Z,100452.94
2023-01-30T14:22:59.442Z,100447.69
2023-01-30T14:25:25.868Z,100462.47
2023-01-30T14:27:53.707Z,100443.72
2023-01-30T14:30:49.196Z,100466.56
2023-01-30T14:33:21.634Z,100452.41
2023-01-30T14:35:49.098Z,100489.41
2023-01-30T14:38:17.111Z,100475.25
2023-01-30T14:40:45.129Z,100498.25
2023-01-30T14:43:14.457Z,100517.56
2023-01-30T14:45:54.376Z,100529.06
2023-01-30T14:48:44.453Z,100537.97
2023-01-30T14:51:30.086Z,100544.09
2023-01-30T14:54:11.784Z,100544.03
2023-01-30T14:56:44.177Z,100552.50
2023-01-30T14:59:16.637Z,100564.94
2023-01-30T15:02:01.428Z,100578.31
2023-01-30T15:04:32.615Z,100561.63
2023-01-30T15:07:28.150Z,100578.41
2023-01-30T15:10:01.733Z,100600.56
2023-01-30T15:12:49.486Z,100612.09
2023-01-30T15:15:44.998Z,100616.63
2023-01-30T15:18:40.380Z,100620.88
2023-01-30T15:21:26.980Z,100636.78
2023-01-30T15:24:08.529Z,100653.56
2023-01-30T15:26:42.486Z,100658.00
2023-01-30T15:29:46.460Z,100666.09
2023-01-30T15:32:26.311Z,100677.72
2023-01-30T15:35:12.240Z,100677.63
2023-01-30T15:37:40.440Z,100690.09
2023-01-30T15:40:28.847Z,100692.72
2023-01-30T15:42:55.110Z,100699.78
2023-01-30T15:45:42.266Z,100713.03
2023-01-30T15:48:44.548Z,100706.00
2023-01-30T15:51:12.118Z,100722.78
2023-01-30T15:53:42.149Z,100714.16
2023-01-30T15:56:10.341Z,100737.06
2023-01-30T15:58:41.123Z,100740.59
2023-01-30T16:01:07.663Z,100746.00
2023-01-30T16:03:41.473Z,100772.47
2023-01-30T16:06:19.423Z,100771.66
2023-01-30T16:08:45.813Z,100784.09
2023-01-30T16:11:12.282Z,100769.91
2023-01-30T16:13:38.666Z,100778.72
2023-01-30T16:16:13.854Z,100777.84
2023-01-30T16:18:45.721Z,100793.78
2023-01-30T16:21:24.344Z,100797.31
2023-01-30T16:24:02.937Z,100801.78
2023-01-30T16:26:29.434Z,100807.97
2023-01-30T16:29:06.281Z,100805.28
2023-01-30T16:31:33.754Z,100816.78
2023-01-30T16:34:00.321Z,100808.84
2023-01-30T16:36:26.626Z,100825.72
2023-01-30T16:38:53.727Z,100825.75
2023-01-30T16:41:39.227Z,100853.09
2023-01-30T16:44:19.985Z,100848.72
2023-01-30T16:46:59.689Z,100854.88
2023-01-30T16:49:35.147Z,100865.56
2023-01-30T16:52:33.588Z,100866.53
2023-01-30T16:55:01.974Z,100878.06
2023-01-30T16:57:31.290Z,100899.22
2023-01-30T16:59:57.904Z,100899.31
2023-01-30T17:02:47.476Z,100898.44
2023-01-30T17:05:24.971Z,100919.69
2023-01-30T17:07:51.576Z,100920.56
2023-01-30T17:10:39.459Z,100927.53
2023-01-30T17:13:31.563Z,100928.41
2023-01-30T17:16:24.045Z,100934.56
2023-01-30T17:18:52.022Z,100942.50
2023-01-30T17:21:22.984Z,100948.69
2023-01-30T17:23:52.994Z,100962.84
2023-01-30T17:26:19.547Z,100966.34
2023-01-30T17:28:46.005Z,100972.59
2023-01-30T17:31:13.203Z,100977.94
2023-01-30T17:33:39.689Z,100977.97
2023-01-30T17:36:07.339Z,100985.91
2023-01-30T17:38:33.735Z,100993.91
2023-01-30T17:41:00.158Z,100992.16
2023-01-30T17:43:26.585Z,100997.41
2023-01-30T17:45:53.009Z,101002.72
2023-01-30T17:48:19.477Z,100997.38
2023-01-30T17:50:45.868Z,100988.59
2023-01-30T17:53:13.803Z,100998.31
2023-01-30T17:55:40.190Z,101004.47
2023-01-30T17:58:06.730Z,101000.97
2023-01-30T18:00:33.162Z,100998.31
2023-01-30T18:02:59.694Z,101010.63
2023-01-30T18:05:26.403Z,100999.19
2023-01-30T18:07:52.799Z,100997.44
2023-01-30T18:10:19.936Z,101010.66
2023-01-30T18:12:46.537Z,101015.06
2023-01-30T18:15:13.961Z,101023.88
2023-01-30T18:17:47.948Z,101020.34
2023-01-30T18:20:15.765Z,101019.47
2023-01-30T18:22:42.185Z,101029.16
2023-01-30T18:25:08.724Z,101030.09
2023-01-30T18:27:35.205Z,101030.09
2023-01-30T18:30:01.671Z,101027.47
2023-01-30T18:32:28.059Z,101034.56
2023-01-30T18:34:54.489Z,101043.44
2023-01-30T18:37:20.879Z,101057.53
2023-01-30T18:39:47.289Z,101052.25
2023-01-30T18:42:13.691Z,101055.75
2023-01-30T18:44:40.100Z,101056.69
2023-01-30T18:47:06.521Z,101062.81
2023-01-30T18:49:32.920Z,101084.00
2023-01-30T18:51:59.311Z,101087.53
2023-01-30T18:54:25.731Z,101085.72
2023-01-30T18:56:52.144Z,101098.06
2023-01-30T18:59:18.557Z,101106.88
2023-01-30T19:01:44.968Z,101098.91
2023-01-30T19:04:11.523Z,101105.94
2023-01-30T19:06:39.563Z,101112.97
2023-01-30T19:09:06.206Z,101121.78
2023-01-30T19:11:32.738Z,101122.66
2023-01-30T19:13:59.154Z,101113.84
2023-01-30T19:16:27.549Z,101104.97
2023-01-30T19:18:54.336Z,101115.56
2023-01-30T19:21:22.429Z,101128.81
2023-01-30T19:23:49.077Z,101132.34
2023-01-30T19:26:16.093Z,101138.56
2023-01-30T19:28:42.513Z,101135.03
2023-01-30T19:31:09.308Z,101137.72
2023-01-30T19:33:38.780Z,101147.41
2023-01-30T19:36:15.864Z,101148.28
2023-01-30T19:38:42.446Z,101152.72
2023-01-30T19:41:32.476Z,101159.75
2023-01-30T19:43:59.955Z,101166.84
2023-01-30T19:46:26.635Z,101162.41
2023-01-30T19:48:53.075Z,101170.31
2023-01-30T19:51:21.104Z,101174.72
2023-01-30T19:53:56.766Z,101190.59
2023-01-30T19:56:23.255Z,101197.66
2023-01-30T19:58:49.820Z,101196.75
2023-01-30T20:01:16.952Z,101217.03
2023-01-30T20:03:43.369Z,101215.28
2023-01-30T20:06:12.192Z,101224.97
2023-01-30T20:08:39.690Z,101229.34
2023-01-30T20:11:07.684Z,101224.94
2023-01-30T20:13:35.218Z,101226.72
2023-01-30T20:16:08.638Z,101231.13
2023-01-30T20:18:35.144Z,101232.00
2023-01-30T20:21:11.416Z,101234.63
2023-01-30T20:23:38.140Z,101231.13
2023-01-30T20:26:05.649Z,101221.41
2023-01-30T20:28:32.391Z,101226.69
2023-01-30T20:30:59.463Z,101232.00
2023-01-30T20:33:26.353Z,101240.81
2023-01-30T20:35:52.743Z,101254.00
2023-01-30T20:38:19.174Z,101258.41
2023-01-30T20:40:45.564Z,101269.00
2023-01-30T20:43:12.014Z,101277.81
2023-01-30T20:45:38.547Z,101280.44
2023-01-30T20:48:05.674Z,101283.09
2023-01-30T20:50:33.221Z,101297.19
2023-01-30T20:52:59.638Z,101288.38
2023-01-30T20:55:26.081Z,101298.03
2023-01-30T20:57:52.552Z,101295.38
2023-01-30T21:00:19.262Z,101304.19
2023-01-30T21:02:48.805Z,101309.47
2023-01-30T21:05:15.211Z,101307.69
2023-01-30T21:07:41.732Z,101311.19
2023-01-30T21:10:08.618Z,101297.09
2023-01-30T21:12:35.013Z,101309.38
2023-01-30T21:15:01.735Z,101320.84
2023-01-30T21:17:28.345Z,101314.66
2023-01-30T21:19:54.758Z,101305.84
2023-01-30T21:22:21.171Z,101307.66
2023-01-30T21:24:47.621Z,101324.34
2023-01-30T21:27:14.015Z,101312.91
2023-01-30T21:29:40.601Z,101308.50
2023-01-30T21:32:07.009Z,101312.03
2023-01-30T21:34:33.433Z,101320.84
2023-01-30T21:36:59.857Z,101321.75
2023-01-30T21:39:26.287Z,101332.31
2023-01-30T21:41:52.674Z,101339.34
2023-01-30T21:44:19.552Z,101332.28
2023-01-30T21:46:47.151Z,101344.66
2023-01-30T21:49:14.341Z,101341.13
2023-01-30T21:51:44.150Z,101349.06
2023-01-30T21:54:10.721Z,101347.28
2023-01-30T21:56:37.583Z,101345.50
2023-01-30T21:59:04.351Z,101351.69
2023-01-30T22:01:30.949Z,101356.13
2023-01-30T22:04:01.445Z,101345.53
2023-01-30T22:06:27.981Z,101366.69
2023-01-30T22:08:58.195Z,101359.69
2023-01-30T22:11:24.709Z,101357.91
2023-01-30T22:13:51.239Z,101357.94
2023-01-30T22:16:22.085Z,101362.31
2023-01-30T22:18:55.742Z,101368.50
2023-01-30T22:21:23.212Z,101378.19
2023-01-30T22:23:50.484Z,101374.66
2023-01-30T22:26:17.966Z,101371.94
2023-01-30T22:28:44.391Z,101379.84
2023-01-30T22:31:15.159Z,101385.09
2023-01-30T22:33:45.368Z,101380.72
2023-01-30T22:36:11.933Z,101385.09
2023-01-30T22:38:44.137Z,101388.66
2023-01-30T22:41:11.498Z,101389.50
2023-01-30T22:43:38.332Z,101401.84
2023-01-30T22:46:06.712Z,101405.34
2023-01-30T22:48:33.499Z,101411.47
2023-01-30T22:51:16.600Z,101411.47
2023-01-30T22:53:44.603Z,101407.00
2023-01-30T22:56:12.698Z,101412.28
2023-01-30T22:58:39.472Z,101414.94
2023-01-30T23:01:13.114Z,101407.81
2023-01-30T23:03:40.518Z,101406.88
2023-01-30T23:06:08.357Z,101412.16
2023-01-30T23:08:36.001Z,101409.53
2023-01-30T23:11:09.346Z,101406.91
2023-01-30T23:13:36.016Z,101408.66
2023-01-30T23:16:03.579Z,101405.97
2023-01-30T23:18:29.999Z,101397.22
2023-01-30T23:20:56.542Z,101398.97
2023-01-30T23:23:23.006Z,101397.16
2023-01-30T23:25:49.387Z,101399.84
2023-01-30T23:28:15.817Z,101399.84
2023-01-30T23:30:42.239Z,101399.91
2023-01-30T23:33:08.694Z,101395.50
2023-01-30T23:35:35.423Z,101393.75
2023-01-30T23:38:01.871Z,101399.94
2023-01-30T23:40:28.244Z,101410.59
2023-01-30T23:42:54.652Z,101414.13
2023-01-30T23:45:21.273Z,101409.69
2023-01-30T23:47:47.991Z,101400.09
2023-01-30T23:50:14.394Z,101387.72
2023-01-30T23:52:43.981Z,101407.16
2023-01-30T23:55:10.391Z,101416.81
2023-01-30T23:57:36.800Z,101415.94
